Time;durP1;ratioP1;P1;durP2;ratioP2;P2;SDS_P1;SDS_P2;PMS_P1;PMS_P2;Temp;Humidity;BMP_temperature;BMP_pressure;BME280_temperature;BME280_humidity;BME280_pressure;Samples;Min_cycle;Max_cycle;Signal;HPM_P1;HPM_P2
2022/04/23 00:01:40;;;;;;;;;21.00;19.33;;;;;15.57;46.12;99548.00;5057793;28;45404;-42
2022/04/23 00:04:06;;;;;;;;;20.33;18.67;;;;;15.52;46.73;99543.25;5058237;28;45205;-42
2022/04/23 00:06:31;;;;;;;;;22.33;19.00;;;;;15.52;46.75;99543.25;5058169;28;45340;-43
2022/04/23 00:08:56;;;;;;;;;26.00;19.33;;;;;15.49;46.69;99546.34;5057914;28;46483;-44
2022/04/23 00:11:22;;;;;;;;;26.33;22.00;;;;;15.40;47.06;99535.00;5058025;28;45284;-41
2022/04/23 00:13:47;;;;;;;;;23.33;18.67;;;;;15.49;46.56;99549.03;5058091;28;45260;-42
2022/04/23 00:16:15;;;;;;;;;22.67;20.33;;;;;15.46;47.05;99544.94;5056811;28;45373;-41
2022/04/23 00:18:40;;;;;;;;;21.33;18.33;;;;;15.45;46.84;99537.88;5057382;28;46989;-41
2022/04/23 00:21:06;;;;;;;;;19.33;19.33;;;;;15.44;47.19;99541.59;5056350;28;45483;-41
2022/04/23 00:23:31;;;;;;;;;22.00;16.00;;;;;15.38;46.61;99530.88;5057899;28;45859;-41
2022/04/23 00:25:58;;;;;;;;;23.67;20.67;;;;;15.40;47.14;99534.19;5057959;28;45326;-41
2022/04/23 00:28:24;;;;;;;;;21.33;17.33;;;;;15.37;47.09;99532.75;5057511;28;46242;-41
2022/04/23 00:30:51;;;;;;;;;23.67;20.00;;;;;15.40;47.47;99544.91;5057710;28;45322;-42
2022/04/23 00:33:17;;;;;;;;;24.33;19.00;;;;;15.35;47.24;99531.31;5057486;28;45498;-42
2022/04/23 00:35:42;;;;;;;;;20.00;19.67;;;;;15.25;46.45;99512.16;5057933;28;45460;-41
2022/04/23 00:38:08;;;;;;;;;23.00;19.00;;;;;15.32;47.26;99529.88;5057295;28;45376;-41
2022/04/23 00:40:33;;;;;;;;;21.67;20.00;;;;;15.29;47.07;99524.09;5057566;28;45773;-40
2022/04/23 00:43:01;;;;;;;;;17.33;14.00;;;;;15.23;46.20;99517.72;5057566;28;45440;-43
2022/04/23 00:45:27;;;;;;;;;25.33;21.67;;;;;15.22;47.41;99516.91;5057638;28;45429;-42
2022/04/23 00:47:53;;;;;;;;;28.67;19.33;;;;;15.20;47.97;99518.13;5057059;28;46417;-45
2022/04/23 00:50:21;;;;;;;;;23.00;19.33;;;;;15.21;47.21;99506.38;5057275;28;45500;-42
2022/04/23 00:52:56;;;;;;;;;24.00;19.00;;;;;15.20;47.71;99510.09;5057318;28;45316;-42
2022/04/23 00:55:23;;;;;;;;;27.00;23.33;;;;;15.20;47.94;99513.59;5057581;28;45499;-43
2022/04/23 00:57:48;;;;;;;;;22.67;18.67;;;;;15.19;47.21;99503.91;5057042;28;46274;-41
2022/04/23 01:00:15;;;;;;;;;24.00;21.33;;;;;15.18;47.51;99502.25;5056876;28;45724;-41
2022/04/23 01:02:40;;;;;;;;;17.33;17.00;;;;;15.17;47.91;99492.59;5057139;28;45320;-42
2022/04/23 01:05:09;;;;;;;;;19.67;19.67;;;;;15.20;48.17;99502.06;5057345;28;45384;-42
2022/04/23 01:07:40;;;;;;;;;22.67;21.00;;;;;15.14;47.81;99482.28;5057171;28;46962;-45
2022/04/23 01:10:06;;;;;;;;;18.33;18.00;;;;;15.18;48.36;99486.19;5057170;28;45375;-41
2022/04/23 01:12:35;;;;;;;;;23.00;22.33;;;;;15.16;47.92;99485.56;5056946;28;45351;-42
2022/04/23 01:15:05;;;;;;;;;20.33;19.33;;;;;15.15;47.85;99483.09;5057225;28;45494;-41
2022/04/23 01:17:31;;;;;;;;;22.67;19.33;;;;;15.14;48.01;99481.47;5056711;28;46218;-42
2022/04/23 01:19:59;;;;;;;;;22.67;19.67;;;;;15.12;48.29;99478.16;5056841;28;45544;-41
2022/04/23 01:22:24;;;;;;;;;20.00;18.67;;;;;15.09;47.59;99476.72;5056953;28;45484;-40
2022/04/23 01:24:51;;;;;;;;;21.33;17.00;;;;;14.99;47.87;99462.91;5057044;28;45259;-41
2022/04/23 01:27:17;;;;;;;;;23.33;19.67;;;;;14.92;48.02;99456.75;5056953;28;45262;-42
2022/04/23 01:29:42;;;;;;;;;17.33;17.00;;;;;15.07;48.04;99486.81;5056833;28;45470;-42
2022/04/23 01:32:08;;;;;;;;;27.33;20.33;;;;;15.05;48.68;99483.53;5056765;28;45337;-41
2022/04/23 01:34:33;;;;;;;;;24.00;19.33;;;;;15.01;48.32;99482.28;5057070;28;45461;-41
2022/04/23 01:36:59;;;;;;;;;28.67;18.00;;;;;14.99;48.10;99478.97;5056576;28;46270;-41
2022/04/23 01:39:24;;;;;;;;;3.67;0.00;;;;;14.98;48.20;99478.16;5057076;28;45440;-40
2022/04/23 01:41:50;;;;;;;;;26.00;24.00;;;;;14.90;48.15;99464.16;5056693;28;45347;-43
2022/04/23 01:44:15;;;;;;;;;21.67;19.00;;;;;14.93;48.11;99474.47;5057026;28;45401;-42
2022/04/23 01:46:40;;;;;;;;;26.67;21.00;;;;;14.92;48.39;99473.66;5056668;28;45484;-45
2022/04/23 01:49:06;;;;;;;;;22.00;19.00;;;;;14.90;48.68;99464.97;5056448;28;45448;-43
2022/04/23 01:51:31;;;;;;;;;25.67;21.00;;;;;14.88;48.64;99466.22;5056806;28;45325;-42
2022/04/23 01:53:57;;;;;;;;;30.00;20.00;;;;;14.87;48.30;99465.38;5056709;28;45422;-42
2022/04/23 01:56:22;;;;;;;;;24.33;21.00;;;;;14.85;48.54;99462.09;5056413;28;45399;-42
2022/04/23 01:58:48;;;;;;;;;25.67;22.67;;;;;14.77;48.55;99454.25;5056273;28;45324;-42
2022/04/23 02:01:13;;;;;;;;;22.67;22.67;;;;;14.81;48.74;99454.69;5056673;28;45265;-42
2022/04/23 02:03:38;;;;;;;;;25.67;20.00;;;;;14.80;48.95;99463.75;5057419;28;45464;-42
2022/04/23 02:06:04;;;;;;;;;28.00;23.00;;;;;14.78;48.53;99460.44;5058437;28;45543;-42
2022/04/23 02:08:30;;;;;;;;;23.00;20.00;;;;;14.72;48.17;99456.75;5059875;28;45255;-41
2022/04/23 02:10:56;;;;;;;;;26.00;24.00;;;;;14.72;48.89;99454.06;5060127;28;45408;-42
2022/04/23 02:13:22;;;;;;;;;26.33;24.33;;;;;14.69;48.67;99457.13;5060286;28;45316;-41
2022/04/23 02:15:48;;;;;;;;;25.33;23.33;;;;;14.66;49.08;99453.03;5059757;28;45423;-42
2022/04/23 02:18:14;;;;;;;;;27.33;21.67;;;;;14.63;48.85;99439.25;5059592;28;45242;-42
2022/04/23 02:20:39;;;;;;;;;30.00;24.00;;;;;14.62;48.81;99441.09;5059859;28;45839;-42
2022/04/23 02:23:05;;;;;;;;;25.67;22.33;;;;;14.51;49.14;99431.00;5059959;28;45408;-41
2022/04/23 02:25:35;;;;;;;;;28.33;22.67;;;;;14.56;48.92;99447.25;5058239;28;46553;-42
2022/04/23 02:28:00;;;;;;;;;26.67;21.33;;;;;14.52;49.42;99443.34;5059582;28;45505;-42
2022/04/23 02:30:26;;;;;;;;;24.33;20.33;;;;;14.50;49.08;99441.91;5059733;28;45425;-42
2022/04/23 02:32:51;;;;;;;;;25.33;18.00;;;;;14.47;48.75;99440.41;5059789;28;45368;-43
2022/04/23 02:35:18;;;;;;;;;25.00;20.33;;;;;14.43;48.92;99444.53;5059108;28;46097;-42
2022/04/23 02:37:45;;;;;;;;;21.33;21.33;;;;;14.42;49.12;99445.56;5059419;28;45285;-41
2022/04/23 02:40:12;;;;;;;;;21.00;19.00;;;;;14.40;49.34;99442.25;5059546;28;45855;-43
2022/04/23 02:42:37;;;;;;;;;20.67;18.67;;;;;14.38;49.43;99447.00;5059757;28;45274;-42
2022/04/23 02:45:04;;;;;;;;;23.33;22.67;;;;;14.29;49.72;99418.78;5059358;28;46033;-44
2022/04/23 02:47:54;;;;;;;;;27.00;21.67;;;;;14.28;49.43;99419.78;5059836;28;45221;-42
2022/04/23 02:50:26;;;;;;;;;25.00;21.33;;;;;14.25;50.11;99413.03;5059468;28;45472;-44
2022/04/23 02:52:53;;;;;;;;;23.67;21.67;;;;;14.33;49.91;99425.38;5059516;28;45188;-44
2022/04/23 02:55:19;;;;;;;;;22.33;22.00;;;;;14.31;49.86;99414.88;5058793;28;45237;-43
2022/04/23 02:57:44;;;;;;;;;27.00;24.33;;;;;14.31;50.04;99414.88;5059042;28;45478;-43
2022/04/23 03:00:11;;;;;;;;;25.00;19.33;;;;;14.30;50.08;99415.09;5059060;28;45530;-42
2022/04/23 03:02:40;;;;;;;;;22.00;21.00;;;;;14.23;50.39;99404.34;5059459;28;45349;-46
2022/04/23 03:05:10;;;;;;;;;26.33;21.33;;;;;14.28;49.86;99411.78;5058658;28;46077;-43
2022/04/23 03:07:35;;;;;;;;;27.00;21.33;;;;;14.18;50.04;99404.97;5058677;28;45385;-44
2022/04/23 03:10:03;;;;;;;;;21.67;19.00;;;;;14.22;50.57;99422.25;5059009;28;45266;-43
2022/04/23 03:12:28;;;;;;;;;23.33;19.67;;;;;14.20;50.00;99418.97;5059095;28;45340;-43
2022/04/23 03:14:54;;;;;;;;;29.67;24.67;;;;;14.18;50.49;99413.00;5057755;28;45504;-42
2022/04/23 03:17:19;;;;;;;;;23.67;22.00;;;;;14.06;49.65;99395.88;5058571;28;45352;-43
2022/04/23 03:19:46;;;;;;;;;25.00;21.67;;;;;14.12;50.17;99408.47;5058445;28;45862;-43
2022/04/23 03:22:13;;;;;;;;;26.67;23.00;;;;;14.11;50.34;99406.78;5059070;28;45488;-42
2022/04/23 03:24:39;;;;;;;;;24.33;21.67;;;;;14.09;50.16;99403.50;5058733;28;46361;-43
2022/04/23 03:27:06;;;;;;;;;25.00;22.00;;;;;14.08;50.13;99398.38;5058437;28;45360;-43
2022/04/23 03:29:32;;;;;;;;;27.00;22.33;;;;;14.05;50.19;99399.59;5058702;28;45375;-42
2022/04/23 03:31:57;;;;;;;;;23.00;21.33;;;;;14.05;50.49;99398.78;5058817;28;45479;-42
2022/04/23 03:34:23;;;;;;;;;24.67;22.00;;;;;14.01;50.33;99400.19;5058325;28;46683;-42
2022/04/23 03:36:48;;;;;;;;;28.67;21.33;;;;;13.94;50.20;99384.13;5058713;28;45305;-42
2022/04/23 03:39:14;;;;;;;;;23.33;23.33;;;;;13.96;49.66;99392.78;5058610;28;45379;-42
2022/04/23 03:41:39;;;;;;;;;26.33;21.00;;;;;13.93;50.50;99388.66;5058803;28;45274;-42
2022/04/23 03:44:05;;;;;;;;;22.33;19.00;;;;;13.82;49.98;99375.03;5058467;28;46163;-41
2022/04/23 03:46:30;;;;;;;;;26.33;22.00;;;;;13.89;50.94;99398.09;5058272;28;45405;-42
2022/04/23 03:48:56;;;;;;;;;18.00;17.50;;;;;13.87;50.84;99389.47;5058768;28;45430;-43
2022/04/23 03:51:21;;;;;;;;;24.67;21.67;;;;;13.86;50.57;99389.66;5058614;28;45230;-43
2022/04/23 03:53:47;;;;;;;;;28.67;22.33;;;;;13.83;49.87;99382.88;5058232;28;45363;-42
2022/04/23 03:56:12;;;;;;;;;23.00;20.00;;;;;13.79;51.00;99384.31;5058160;28;45241;-43
2022/04/23 03:58:38;;;;;;;;;27.50;24.00;;;;;13.77;50.33;99386.34;5058207;28;45243;-42
2022/04/23 04:01:04;;;;;;;;;25.00;20.67;;;;;13.72;50.91;99378.09;5058372;28;45202;-43
2022/04/23 04:03:29;;;;;;;;;22.67;20.33;;;;;13.71;50.46;99382.63;5057885;28;46163;-43
2022/04/23 04:05:55;;;;;;;;;29.33;22.67;;;;;13.67;51.34;99378.72;5057981;28;45537;-42
2022/04/23 04:08:21;;;;;;;;;30.33;22.33;;;;;13.67;51.13;99380.56;5058189;28;45350;-43
2022/04/23 04:10:46;;;;;;;;;26.67;22.00;;;;;13.62;50.33;99362.47;5058382;28;45275;-42
2022/04/23 04:13:13;;;;;;;;;28.25;26.75;;;;;13.63;51.17;99365.94;5057979;28;45349;-42
2022/04/23 04:15:43;;;;;;;;;28.75;22.25;;;;;13.63;51.49;99372.13;5056248;28;45515;-42
2022/04/23 04:18:11;;;;;;;;;28.67;23.00;;;;;13.61;51.54;99366.16;5058065;28;45246;-41
2022/04/23 04:20:37;;;;;;;;;31.00;25.75;;;;;13.59;51.32;99365.53;5056595;28;45329;-42
2022/04/23 04:23:02;;;;;;;;;28.50;22.75;;;;;13.62;51.98;99364.31;5057620;28;46317;-43
2022/04/23 04:25:28;;;;;;;;;19.67;19.67;;;;;13.60;51.79;99361.81;5057172;28;45332;-42
2022/04/23 04:27:53;;;;;;;;;25.67;21.33;;;;;13.60;51.54;99367.16;5057362;28;45289;-41
2022/04/23 04:30:19;;;;;;;;;27.75;23.00;;;;;13.46;51.75;99342.25;5057885;28;45264;-41
2022/04/23 04:32:44;;;;;;;;;25.00;18.67;;;;;13.57;51.59;99366.72;5057628;28;46433;-41
2022/04/23 04:35:10;;;;;;;;;26.75;20.50;;;;;13.56;51.20;99365.91;5057496;28;45331;-43
2022/04/23 04:37:37;;;;;;;;;25.67;25.00;;;;;13.56;51.83;99365.91;5057663;28;45213;-41
2022/04/23 04:40:06;;;;;;;;;29.00;21.00;;;;;13.55;52.04;99364.28;5057671;28;45363;-42
2022/04/23 04:42:32;;;;;;;;;30.75;24.50;;;;;13.55;52.17;99360.78;5057126;28;46625;-42
2022/04/23 04:44:57;;;;;;;;;25.25;20.00;;;;;13.52;51.93;99353.97;5056876;28;45311;-42
2022/04/23 04:47:22;;;;;;;;;23.75;22.75;;;;;13.54;52.19;99356.47;5057627;28;45329;-42
2022/04/23 04:49:48;;;;;;;;;24.75;19.00;;;;;13.52;52.07;99356.66;5057672;28;45350;-41
2022/04/23 04:52:13;;;;;;;;;31.75;25.00;;;;;13.53;51.43;99360.16;5057142;28;45336;-42
2022/04/23 04:54:39;;;;;;;;;21.67;19.33;;;;;13.52;50.50;99353.16;5055449;28;45452;-42
2022/04/23 04:57:04;;;;;;;;;24.75;22.75;;;;;13.48;52.16;99360.75;5056065;28;45754;-42
2022/04/23 04:59:33;;;;;;;;;20.67;18.67;;;;;13.47;51.77;99357.25;5057291;28;45325;-42
2022/04/23 05:01:59;;;;;;;;;24.67;22.00;;;;;13.51;51.26;99364.88;5057118;28;45416;-42
2022/04/23 05:04:25;;;;;;;;;32.50;24.25;;;;;13.51;51.89;99367.53;5057227;28;45312;-43
2022/04/23 05:06:50;;;;;;;;;26.00;22.33;;;;;13.50;51.89;99361.38;5056938;28;45429;-42
2022/04/23 05:09:16;;;;;;;;;28.33;22.33;;;;;13.53;52.14;99362.84;5057595;28;45421;-42
2022/04/23 05:11:41;;;;;;;;;30.50;22.75;;;;;13.54;52.06;99364.47;5056844;28;46114;-42
2022/04/23 05:14:07;;;;;;;;;32.00;27.00;;;;;13.54;51.99;99356.47;5056105;28;45361;-43
2022/04/23 05:16:32;;;;;;;;;29.00;24.50;;;;;13.57;51.63;99358.72;5057118;28;45476;-41
2022/04/23 05:18:57;;;;;;;;;31.00;22.00;;;;;13.60;51.82;99358.31;5057311;28;45333;-42
2022/04/23 05:21:23;;;;;;;;;25.75;24.75;;;;;13.63;51.65;99358.75;5056690;28;46321;-41
2022/04/23 05:23:48;;;;;;;;;25.25;21.75;;;;;13.66;52.05;99358.38;5056810;28;45367;-41
2022/04/23 05:26:14;;;;;;;;;21.33;18.67;;;;;13.70;50.82;99356.94;5057187;28;45327;-42
2022/04/23 05:28:41;;;;;;;;;27.50;23.50;;;;;13.75;51.27;99361.69;5057222;28;45713;-41
2022/04/23 05:31:08;;;;;;;;;23.67;19.67;;;;;13.78;51.27;99355.94;5056698;28;46236;-45
2022/04/23 05:33:35;;;;;;;;;27.33;22.00;;;;;13.80;50.47;99343.19;5056729;28;45299;-42
2022/04/23 05:36:00;;;;;;;;;30.00;24.00;;;;;13.87;50.67;99351.22;5056536;28;45312;-42
2022/04/23 05:38:26;;;;;;;;;20.33;19.67;;;;;13.89;51.42;99341.16;5057449;28;45442;-41
2022/04/23 05:40:51;;;;;;;;;30.75;26.00;;;;;13.93;51.26;99347.75;5060274;28;46136;-41
2022/04/23 05:43:17;;;;;;;;;27.67;24.67;;;;;13.96;51.24;99342.81;5058935;28;45512;-42
2022/04/23 05:45:43;;;;;;;;;30.00;21.33;;;;;14.02;51.12;99343.03;5060367;28;45363;-42
2022/04/23 05:48:09;;;;;;;;;31.33;22.67;;;;;14.07;50.73;99335.22;5060451;28;45562;-41
2022/04/23 05:50:34;;;;;;;;;23.00;21.67;;;;;14.11;50.06;99339.94;5060131;28;45390;-43
2022/04/23 05:53:00;;;;;;;;;28.67;22.00;;;;;14.19;50.63;99345.09;5060034;28;45391;-42
2022/04/23 05:55:25;;;;;;;;;24.67;23.33;;;;;14.14;50.04;99317.31;5060118;28;45352;-42
2022/04/23 05:57:51;;;;;;;;;24.33;22.33;;;;;14.31;49.87;99342.63;5060302;28;45146;-42
2022/04/23 06:00:17;;;;;;;;;26.00;22.00;;;;;14.37;49.66;99338.34;5059747;28;45440;-42
2022/04/23 06:02:45;;;;;;;;;24.33;22.67;;;;;14.41;49.81;99350.25;5060358;28;45390;-42
2022/04/23 06:05:11;;;;;;;;;34.00;27.00;;;;;14.44;50.10;99355.19;5060324;28;45294;-42
2022/04/23 06:07:37;;;;;;;;;27.33;26.33;;;;;14.36;49.69;99358.06;5059945;28;45314;-44
2022/04/23 06:10:04;;;;;;;;;30.00;27.33;;;;;14.38;50.18;99362.22;5060093;28;45500;-42
2022/04/23 06:12:29;;;;;;;;;30.33;23.00;;;;;14.35;50.41;99359.09;5060020;28;45340;-43
2022/04/23 06:14:54;;;;;;;;;30.25;26.00;;;;;14.37;50.29;99357.06;5060140;28;45247;-45
2022/04/23 06:17:25;;;;;;;;;27.00;23.00;;;;;14.44;49.82;99368.56;5060039;28;45324;-41
2022/04/23 06:19:50;;;;;;;;;27.67;20.33;;;;;14.46;49.72;99382.59;5059648;28;46114;-42
2022/04/23 06:22:16;;;;;;;;;27.00;23.00;;;;;14.39;50.60;99393.28;5059517;28;45413;-42
2022/04/23 06:24:42;;;;;;;;;26.33;23.00;;;;;14.33;50.32;99378.06;5059727;28;45341;-42
2022/04/23 06:27:07;;;;;;;;;27.00;24.67;;;;;14.44;49.54;99381.94;5059880;28;45394;-43
2022/04/23 06:29:32;;;;;;;;;20.00;18.33;;;;;14.48;50.38;99372.50;5059549;28;45315;-42
2022/04/23 06:31:58;;;;;;;;;28.00;20.33;;;;;14.60;49.66;99383.44;5059427;28;45363;-43
2022/04/23 06:34:23;;;;;;;;;28.00;24.33;;;;;14.61;50.01;99375.19;5059759;28;45250;-43
2022/04/23 06:36:49;;;;;;;;;30.00;25.00;;;;;14.70;49.64;99363.25;5059555;28;45338;-42
2022/04/23 06:39:14;;;;;;;;;28.67;20.67;;;;;14.83;49.29;99364.25;5057835;28;47317;-43
2022/04/23 06:41:39;;;;;;;;;27.00;23.67;;;;;14.91;48.99;99367.53;5059436;28;45305;-43
2022/04/23 06:44:05;;;;;;;;;27.00;21.33;;;;;14.95;49.23;99365.28;5059466;28;45258;-43
2022/04/23 06:46:30;;;;;;;;;27.33;26.67;;;;;15.13;49.23;99372.69;5058500;28;45416;-41
2022/04/23 06:48:56;;;;;;;;;24.33;21.33;;;;;15.22;48.33;99369.56;5059176;28;46020;-42
2022/04/23 06:51:22;;;;;;;;;24.67;22.00;;;;;15.32;48.57;99362.94;5058917;28;45269;-43
2022/04/23 06:53:47;;;;;;;;;19.33;18.00;;;;;15.41;48.03;99372.38;5058793;28;45376;-42
2022/04/23 06:56:13;;;;;;;;;25.00;21.33;;;;;15.34;48.15;99347.47;5059022;28;45197;-41
2022/04/23 06:58:38;;;;;;;;;23.33;18.33;;;;;15.46;48.08;99368.03;5058881;28;46442;-42
2022/04/23 07:01:04;;;;;;;;;29.00;26.67;;;;;15.46;48.13;99362.69;5057633;28;45310;-43
2022/04/23 07:03:29;;;;;;;;;27.67;25.00;;;;;15.47;48.51;99374.22;5058906;28;45317;-43
2022/04/23 07:05:55;;;;;;;;;29.33;23.33;;;;;15.43;48.53;99362.28;5059211;28;45361;-42
2022/04/23 07:08:20;;;;;;;;;27.33;24.00;;;;;15.38;48.50;99364.75;5058502;28;45392;-43
2022/04/23 07:10:46;;;;;;;;;27.67;23.67;;;;;15.33;48.75;99365.38;5058950;28;45491;-43
2022/04/23 07:13:14;;;;;;;;;28.00;24.33;;;;;15.32;48.89;99352.22;5058855;28;45476;-42
2022/04/23 07:15:39;;;;;;;;;33.67;28.00;;;;;15.30;48.88;99365.00;5058908;28;45471;-43
2022/04/23 07:18:07;;;;;;;;;25.00;25.00;;;;;15.23;48.62;99352.44;5058574;28;45352;-43
2022/04/23 07:20:32;;;;;;;;;29.33;25.33;;;;;15.16;48.37;99358.84;5058642;28;45338;-45
2022/04/23 07:25:42;;;;;;;;;27.00;24.67;;;;;15.02;49.43;99363.41;5058773;28;45228;-42
2022/04/23 07:28:07;;;;;;;;;32.67;27.33;;;;;14.99;49.80;99350.44;5058223;28;46182;-42
2022/04/23 07:30:34;;;;;;;;;30.00;26.67;;;;;15.01;49.87;99359.09;5058343;28;45256;-43
2022/04/23 07:32:59;;;;;;;;;33.00;26.33;;;;;15.02;48.73;99351.88;5058565;28;45429;-43
2022/04/23 07:38:21;;;;;;;;;34.00;30.67;;;;;15.31;48.92;99363.97;5058033;28;45628;-42
2022/04/23 07:40:48;;;;;;;;;40.00;29.67;;;;;15.47;48.73;99366.19;5058104;28;45430;-43
2022/04/23 07:43:14;;;;;;;;;24.33;22.00;;;;;15.60;48.75;99352.72;5058159;28;45455;-43
2022/04/23 07:45:42;;;;;;;;;28.00;25.00;;;;;15.75;47.76;99363.19;5058252;28;45386;-42
2022/04/23 07:48:09;;;;;;;;;28.33;24.00;;;;;15.78;47.47;99341.31;5057712;28;45280;-42
2022/04/23 07:50:36;;;;;;;;;31.67;27.33;;;;;15.95;48.02;99333.59;5057027;28;45232;-43
2022/04/23 07:53:01;;;;;;;;;27.67;24.33;;;;;16.26;47.29;99339.97;5055187;28;45398;-43
2022/04/23 07:55:30;;;;;;;;;23.67;21.00;;;;;16.49;47.34;99350.13;5058544;28;45468;-44
2022/04/23 07:57:57;;;;;;;;;32.67;23.33;;;;;16.54;47.06;99343.06;5058442;28;46400;-43
2022/04/23 08:00:23;;;;;;;;;30.67;24.67;;;;;16.56;46.88;99345.50;5057801;28;45468;-42
2022/04/23 08:02:48;;;;;;;;;27.67;25.33;;;;;16.58;46.63;99338.06;5056903;28;45295;-43
2022/04/23 08:05:13;;;;;;;;;31.33;27.00;;;;;16.69;46.69;99343.56;5058101;28;45205;-45
2022/04/23 08:07:39;;;;;;;;;34.00;28.00;;;;;16.69;46.53;99322.06;5057833;28;46886;-43
2022/04/23 08:10:06;;;;;;;;;30.00;27.33;;;;;17.00;46.32;99338.31;5057519;28;45393;-42
2022/04/23 08:12:35;;;;;;;;;27.00;24.00;;;;;17.18;45.98;99332.94;5057628;28;45384;-43
2022/04/23 08:15:00;;;;;;;;;23.67;21.67;;;;;17.34;45.79;99332.34;5057734;28;45362;-45
2022/04/23 08:17:26;;;;;;;;;26.33;26.00;;;;;17.45;45.60;99336.16;5057352;28;45447;-42
2022/04/23 08:19:51;;;;;;;;;30.67;24.33;;;;;17.54;45.49;99332.09;5057569;28;45455;-43
2022/04/23 08:22:17;;;;;;;;;29.33;27.33;;;;;17.54;45.44;99329.41;5057186;28;45383;-42
2022/04/23 08:24:42;;;;;;;;;11.67;11.67;;;;;17.58;45.59;99319.03;5057517;28;45187;-44
2022/04/23 08:27:07;;;;;;;;;34.33;26.00;;;;;17.60;45.57;99325.81;5057330;28;46185;-42
2022/04/23 08:32:17;;;;;;;;;32.33;24.67;;;;;17.59;45.51;99323.38;5057334;28;45253;-43
2022/04/23 08:34:42;;;;;;;;;29.00;28.67;;;;;17.52;45.26;99317.25;5057337;28;45422;-43
2022/04/23 08:37:08;;;;;;;;;30.33;27.00;;;;;17.56;45.60;99323.81;5055767;28;47187;-42
2022/04/23 08:39:33;;;;;;;;;35.00;29.00;;;;;17.57;45.50;99320.06;5057015;28;45449;-42
2022/04/23 08:41:59;;;;;;;;;36.00;29.33;;;;;17.53;45.57;99317.03;5057304;28;45214;-42
2022/04/23 08:44:24;;;;;;;;;33.00;25.33;;;;;17.53;46.15;99319.72;5057329;28;45325;-43
2022/04/23 08:46:53;;;;;;;;;32.00;27.67;;;;;17.53;45.83;99321.56;5056934;28;45215;-43
2022/04/23 08:49:19;;;;;;;;;30.00;29.00;;;;;17.56;45.83;99321.13;5057007;28;45470;-42
2022/04/23 08:51:51;;;;;;;;;32.00;28.00;;;;;17.63;45.69;99314.59;5056902;28;45652;-43
2022/04/23 08:54:17;;;;;;;;;29.00;27.67;;;;;17.79;45.68;99315.06;5057159;28;45534;-43
2022/04/23 08:56:44;;;;;;;;;34.67;27.00;;;;;18.04;45.07;99314.91;5056629;28;46162;-41
2022/04/23 08:59:14;;;;;;;;;34.00;29.67;;;;;18.26;44.88;99323.25;5056545;28;45412;-42
2022/04/23 09:01:41;;;;;;;;;29.00;23.67;;;;;18.62;44.11;99325.75;5056983;28;45370;-42
2022/04/23 09:04:08;;;;;;;;;34.00;29.00;;;;;18.74;43.82;99322.25;5057059;28;45451;-42
2022/04/23 09:06:44;;;;;;;;;28.67;26.33;;;;;18.69;43.87;99318.41;5056908;28;45453;-42
2022/04/23 09:09:19;;;;;;;;;23.00;19.33;;;;;18.67;43.97;99325.88;5056437;28;45292;-41
2022/04/23 09:11:49;;;;;;;;;36.33;29.67;;;;;18.64;44.16;99320.94;5056773;28;45352;-42
2022/04/23 09:14:23;;;;;;;;;30.33;26.33;;;;;18.64;43.99;99326.34;5056682;28;45229;-42
2022/04/23 09:25:40;;;;;;;;;29.67;26.67;;;;;18.95;43.72;99324.34;5054787;28;45467;-41
2022/04/23 09:28:18;;;;;;;;;35.33;30.67;;;;;19.33;43.37;99314.91;5054621;28;46249;-42
2022/04/23 09:30:44;;;;;;;;;30.33;26.33;;;;;19.87;42.56;99310.88;5054677;28;45373;-43
2022/04/23 09:33:10;;;;;;;;;30.67;27.00;;;;;20.75;41.00;99302.34;5054746;28;45494;-43
2022/04/23 09:35:50;;;;;;;;;38.67;32.67;;;;;21.73;40.12;99308.72;5054671;28;45407;-43
2022/04/23 09:38:18;;;;;;;;;48.33;35.67;;;;;22.61;38.32;99301.13;5054608;28;47221;-42
2022/04/23 09:40:50;;;;;;;;;29.33;26.00;;;;;23.49;37.82;99296.97;5054405;28;45500;-43
2022/04/23 09:43:15;;;;;;;;;25.67;24.67;;;;;23.94;34.90;99301.72;5054440;28;45645;-42
2022/04/23 09:45:44;;;;;;;;;30.67;25.67;;;;;24.38;35.58;99293.06;5054857;28;45348;-43
2022/04/23 09:48:12;;;;;;;;;35.00;27.33;;;;;24.69;33.43;99304.72;5054162;28;46373;-42
2022/04/23 09:50:39;;;;;;;;;25.67;21.33;;;;;24.93;33.31;99296.78;5054141;28;45470;-42
2022/04/23 09:53:13;;;;;;;;;27.67;24.33;;;;;25.31;33.61;99305.38;5053457;28;45482;-42
2022/04/23 09:55:39;;;;;;;;;25.00;22.33;;;;;26.15;32.46;99297.28;5054852;28;45362;-43
2022/04/23 09:58:06;;;;;;;;;29.67;25.33;;;;;26.48;31.12;99285.59;5056346;28;46060;-42
2022/04/23 10:00:35;;;;;;;;;29.67;26.67;;;;;27.13;32.57;99303.47;5056188;28;45379;-42
2022/04/23 10:03:03;;;;;;;;;25.25;23.25;;;;;27.54;30.42;99290.13;5056457;28;45194;-41
2022/04/23 10:05:29;;;;;;;;;28.00;22.50;;;;;28.04;29.50;99296.81;5056615;28;45419;-42
2022/04/23 10:07:57;;;;;;;;;31.25;25.25;;;;;28.26;30.79;99296.16;5056339;28;46140;-43
2022/04/23 10:10:29;;;;;;;;;25.25;23.50;;;;;28.46;29.25;99291.50;5056136;28;45544;-42
2022/04/23 10:12:57;;;;;;;;;22.50;20.00;;;;;28.62;30.50;99286.56;5056361;28;45406;-41
2022/04/23 10:15:24;;;;;;;;;21.75;21.75;;;;;28.39;29.08;99291.88;5056556;28;45352;-43
2022/04/23 10:17:51;;;;;;;;;27.00;23.50;;;;;28.13;28.47;99298.84;5056030;28;45458;-42
2022/04/23 10:20:16;;;;;;;;;27.25;25.25;;;;;27.83;29.10;99290.03;5056369;28;45353;-42
2022/04/23 10:22:54;;;;;;;;;21.75;18.50;;;;;27.93;30.92;99291.78;5056279;28;45380;-43
2022/04/23 10:25:49;;;;;;;;;20.75;19.75;;;;;28.06;29.82;99283.66;5057647;28;45478;-42
2022/04/23 10:28:16;;;;;;;;;25.00;21.50;;;;;28.22;28.73;99281.47;5059264;28;47097;-42
2022/04/23 10:30:45;;;;;;;;;24.00;22.25;;;;;28.41;29.90;99284.19;5059719;28;45289;-42
2022/04/23 10:33:28;;;;;;;;;20.75;20.00;;;;;28.31;28.85;99284.31;5059670;28;45478;-42
2022/04/23 10:36:09;;;;;;;;;18.50;18.00;;;;;28.26;29.22;99276.22;5059965;28;45447;-42
2022/04/23 10:38:42;;;;;;;;;25.50;21.00;;;;;27.98;29.80;99289.81;5059197;28;45450;-41
2022/04/23 10:41:10;;;;;;;;;23.80;21.20;;;;;28.06;28.82;99274.63;5058992;28;45486;-41
2022/04/23 10:43:49;;;;;;;;;18.25;18.00;;;;;28.73;27.84;99268.84;5059484;28;45404;-42
2022/04/23 10:46:36;;;;;;;;;23.25;19.25;;;;;30.00;28.08;99260.69;5059667;28;45494;-41
2022/04/23 10:49:22;;;;;;;;;22.25;20.00;;;;;31.51;26.46;99267.03;5059384;28;45457;-41
2022/04/23 10:51:57;;;;;;;;;17.20;17.20;;;;;32.57;25.13;99268.59;5059172;28;45442;-42
2022/04/23 10:54:41;;;;;;;;;22.40;16.40;;;;;33.22;23.70;99259.09;5059429;28;45422;-43
2022/04/23 10:57:14;;;;;;;;;14.00;13.60;;;;;33.87;24.40;99259.63;5059304;28;45450;-42
2022/04/23 10:59:47;;;;;;;;;12.80;12.80;;;;;34.28;23.09;99261.53;5059033;28;45545;-42
2022/04/23 11:02:19;;;;;;;;;17.40;14.60;;;;;34.34;20.48;99262.91;5057669;28;45425;-43
2022/04/23 11:13:52;;;;;;;;;11.40;11.20;;;;;37.41;19.02;99246.09;5036597;28;45428;-43
2022/04/23 11:16:20;;;;;;;;;10.40;9.00;;;;;37.91;17.69;99252.72;5036846;28;45373;-43
2022/04/23 11:18:52;;;;;;;;;11.20;9.40;;;;;38.08;17.85;99257.81;5036939;28;45469;-43
2022/04/23 11:21:32;;;;;;;;;12.60;10.40;;;;;38.47;19.41;99252.22;5036305;28;46299;-43
2022/04/23 11:24:00;;;;;;;;;9.80;8.60;;;;;38.56;17.37;99247.22;5036420;28;45494;-42
2022/04/23 11:26:42;;;;;;;;;11.40;10.40;;;;;37.66;17.28;99246.63;5036286;28;45548;-42
2022/04/23 11:29:07;;;;;;;;;10.40;9.20;;;;;37.03;17.51;99244.81;5036720;28;45629;-42
2022/04/23 11:31:33;;;;;;;;;12.25;11.00;;;;;36.72;17.38;99238.13;5036223;28;47237;-41
2022/04/23 11:34:00;;;;;;;;;8.25;8.00;;;;;36.82;17.89;99234.00;5036461;28;45448;-43
2022/04/23 11:36:30;;;;;;;;;8.60;7.60;;;;;36.31;19.00;99233.06;5034970;28;45438;-42
2022/04/23 11:38:58;;;;;;;;;8.20;6.40;;;;;35.69;17.62;99219.53;5036672;28;45346;-42
2022/04/23 11:41:34;;;;;;;;;8.60;8.60;;;;;35.37;18.84;99234.34;5035221;28;45548;-43
2022/04/23 11:47:06;;;;;;;;;9.60;9.60;;;;;34.79;18.92;99231.72;5042646;28;45387;-42